createdAt,value
2022-10-30T05:17:06.651Z,100388.72
2022-10-30T05:19:33.483Z,100394.31
2022-10-30T05:21:59.988Z,100393.38
2022-10-30T05:24:26.440Z,100384.53
2022-10-30T05:26:54.107Z,100380.06
2022-10-30T05:29:20.944Z,100384.50
2022-10-30T05:31:48.419Z,100371.19
2022-10-30T05:34:14.796Z,100380.94
2022-10-30T05:36:42.415Z,100373.28
2022-10-30T05:39:09.829Z,100385.69
2022-10-30T05:41:39.925Z,100391.84
2022-10-30T05:44:07.274Z,100385.63
2022-10-30T05:46:34.074Z,100387.34
2022-10-30T05:49:17.997Z,100383.03
2022-10-30T05:51:45.270Z,100386.84
2022-10-30T05:54:11.989Z,100384.25
2022-10-30T05:56:51.358Z,100396.59
2022-10-30T05:59:18.680Z,100396.75
2022-10-30T06:01:46.805Z,100395.94
2022-10-30T06:04:13.325Z,100396.84
2022-10-30T06:06:45.351Z,100394.25
2022-10-30T06:09:12.852Z,100398.91
2022-10-30T06:12:06.664Z,100408.75
2022-10-30T06:14:43.623Z,100392.50
2022-10-30T06:17:10.124Z,100407.59
2022-10-30T06:19:56.792Z,100398.97
2022-10-30T06:22:57.035Z,100409.56
2022-10-30T06:25:33.116Z,100414.59
2022-10-30T06:28:16.487Z,100414.56
2022-10-30T06:30:42.997Z,100413.75
2022-10-30T06:33:10.573Z,100411.00
2022-10-30T06:35:40.127Z,100409.44
2022-10-30T06:38:08.694Z,100418.22
2022-10-30T06:40:35.652Z,100421.88
2022-10-30T06:43:18.370Z,100428.69
2022-10-30T06:45:58.140Z,100417.13
2022-10-30T06:48:24.776Z,100418.78
2022-10-30T06:50:58.988Z,100417.91
2022-10-30T06:53:26.784Z,100412.53
2022-10-30T06:55:59.172Z,100411.69
2022-10-30T06:58:44.452Z,100415.13
2022-10-30T07:01:29.591Z,100416.00
2022-10-30T07:04:17.500Z,100417.69
2022-10-30T07:06:44.591Z,100412.78
2022-10-30T07:09:11.630Z,100417.66
2022-10-30T07:11:42.124Z,100420.00
2022-10-30T07:14:23.478Z,100418.09
2022-10-30T07:17:11.758Z,100424.97
2022-10-30T07:19:39.662Z,100422.03
2022-10-30T07:22:06.151Z,100425.25
2022-10-30T07:24:37.137Z,100427.81
2022-10-30T07:27:29.925Z,100428.50
2022-10-30T07:30:09.200Z,100440.38
2022-10-30T07:33:10.145Z,100433.03
2022-10-30T07:36:01.017Z,100432.84
2022-10-30T07:38:51.880Z,100436.78
2022-10-30T07:41:36.893Z,100427.63
2022-10-30T07:44:32.014Z,100441.19
2022-10-30T07:47:17.626Z,100443.56
2022-10-30T07:49:49.078Z,100439.91
2022-10-30T07:52:17.787Z,100444.19
2022-10-30T07:54:46.978Z,100443.97
2022-10-30T07:57:42.768Z,100451.66
2022-10-30T08:00:28.075Z,100443.63
2022-10-30T08:03:03.871Z,100451.41
2022-10-30T08:05:54.914Z,100448.69
2022-10-30T08:08:33.470Z,100451.84
2022-10-30T08:11:10.888Z,100455.16
2022-10-30T08:13:37.458Z,100455.94
2022-10-30T08:16:03.957Z,100456.69
2022-10-30T08:18:30.457Z,100453.91
2022-10-30T08:20:56.951Z,100452.91
2022-10-30T08:23:23.682Z,100451.84
2022-10-30T08:25:50.153Z,100456.88
2022-10-30T08:28:17.461Z,100464.72
2022-10-30T08:30:44.631Z,100455.59
2022-10-30T08:33:14.985Z,100452.59
2022-10-30T08:35:58.995Z,100453.25
2022-10-30T08:38:27.644Z,100453.00
2022-10-30T08:41:12.178Z,100456.16
2022-10-30T08:43:45.364Z,100453.13
2022-10-30T08:46:11.908Z,100459.97
2022-10-30T08:48:38.380Z,100459.72
2022-10-30T08:51:07.057Z,100457.63
2022-10-30T08:53:37.652Z,100458.75
2022-10-30T08:56:09.560Z,100457.28
2022-10-30T08:58:50.514Z,100453.41
2022-10-30T09:01:19.054Z,100455.41
2022-10-30T09:04:04.329Z,100449.88
2022-10-30T09:06:53.883Z,100450.19
2022-10-30T09:09:22.947Z,100449.91
2022-10-30T09:11:52.296Z,100448.84
2022-10-30T09:14:18.982Z,100453.09
2022-10-30T09:16:45.495Z,100444.81
2022-10-30T09:19:18.631Z,100444.38
2022-10-30T09:21:46.273Z,100451.28
2022-10-30T09:24:12.748Z,100448.50
2022-10-30T09:26:39.167Z,100446.47
2022-10-30T09:29:37.725Z,100445.31
2022-10-30T09:32:10.073Z,100447.50
2022-10-30T09:34:48.878Z,100441.50
2022-10-30T09:37:23.144Z,100445.84
2022-10-30T09:39:53.628Z,100448.53
2022-10-30T09:42:39.127Z,100447.00
2022-10-30T09:45:33.818Z,100450.16
2022-10-30T09:48:06.382Z,100451.81
2022-10-30T09:51:09.703Z,100442.34
2022-10-30T09:54:05.713Z,100439.38
2022-10-30T09:56:49.864Z,100437.75
2022-10-30T09:59:54.854Z,100443.97
2022-10-30T10:02:34.132Z,100452.59
2022-10-30T10:05:17.370Z,100449.66
2022-10-30T10:08:14.785Z,100456.31
2022-10-30T10:11:08.726Z,100445.16
2022-10-30T10:13:45.865Z,100438.72
2022-10-30T10:16:35.257Z,100441.22
2022-10-30T10:19:37.286Z,100443.56
2022-10-30T10:22:18.850Z,100433.03
2022-10-30T10:24:47.494Z,100435.69
2022-10-30T10:27:36.293Z,100435.94
2022-10-30T10:30:06.071Z,100427.69
2022-10-30T10:32:48.993Z,100419.78
2022-10-30T10:35:24.769Z,100429.09
2022-10-30T10:37:57.857Z,100421.56
2022-10-30T10:40:52.841Z,100423.41
2022-10-30T10:43:28.673Z,100424.00
2022-10-30T10:46:21.593Z,100423.66
2022-10-30T10:49:10.748Z,100411.91
2022-10-30T10:52:05.773Z,100418.50
2022-10-30T10:54:41.834Z,100412.53
2022-10-30T10:57:16.867Z,100418.75
2022-10-30T10:59:52.945Z,100410.75
2022-10-30T11:02:32.580Z,100406.19
2022-10-30T11:05:12.690Z,100410.19
2022-10-30T11:07:50.259Z,100408.09
2022-10-30T11:10:19.316Z,100401.78
2022-10-30T11:12:46.047Z,100403.97
2022-10-30T11:15:26.416Z,100399.00
2022-10-30T11:18:01.509Z,100397.41
2022-10-30T11:20:40.957Z,100399.47
2022-10-30T11:23:30.713Z,100397.75
2022-10-30T11:25:57.192Z,100399.06
2022-10-30T11:28:51.125Z,100395.41
2022-10-30T11:31:30.201Z,100382.38
2022-10-30T11:33:56.580Z,100380.94
2022-10-30T11:36:25.034Z,100385.16
2022-10-30T11:38:52.336Z,100386.28
2022-10-30T11:41:20.368Z,100391.44
2022-10-30T11:43:49.156Z,100389.84
2022-10-30T11:46:22.453Z,100394.88
2022-10-30T11:48:54.652Z,100372.44
2022-10-30T11:51:40.001Z,100370.59
2022-10-30T11:54:07.607Z,100374.41
2022-10-30T11:56:35.851Z,100377.09
2022-10-30T11:59:04.615Z,100379.84
2022-10-30T12:02:04.414Z,100368.22
2022-10-30T12:04:32.888Z,100366.78
2022-10-30T12:07:29.150Z,100370.97
2022-10-30T12:09:57.584Z,100361.41
2022-10-30T12:12:28.886Z,100364.06
2022-10-30T12:14:55.620Z,100362.06
2022-10-30T12:17:22.877Z,100359.00
2022-10-30T12:19:52.860Z,100353.06
2022-10-30T12:22:30.145Z,100355.22
2022-10-30T12:24:58.637Z,100356.66
2022-10-30T12:27:25.850Z,100351.69
2022-10-30T12:30:17.019Z,100350.88
2022-10-30T12:32:58.238Z,100338.09
2022-10-30T12:35:27.966Z,100341.19
2022-10-30T12:37:54.861Z,100337.91
2022-10-30T12:40:30.207Z,100335.00
2022-10-30T12:43:12.357Z,100332.34
2022-10-30T12:45:48.772Z,100335.78
2022-10-30T12:48:37.248Z,100337.94
2022-10-30T12:51:18.429Z,100326.75
2022-10-30T12:54:20.224Z,100323.66
2022-10-30T12:56:52.250Z,100327.13
2022-10-30T12:59:34.950Z,100323.00
2022-10-30T13:02:30.942Z,100318.94
2022-10-30T13:05:03.980Z,100321.63
2022-10-30T13:07:45.527Z,100319.91
2022-10-30T13:10:27.157Z,100318.66
2022-10-30T13:13:01.895Z,100326.50
2022-10-30T13:15:33.579Z,100318.84
2022-10-30T13:18:13.829Z,100319.72
2022-10-30T13:20:42.134Z,100324.09
2022-10-30T13:23:19.563Z,100309.84
2022-10-30T13:26:08.128Z,100308.72
2022-10-30T13:28:52.362Z,100306.16
2022-10-30T13:31:44.583Z,100304.53
2022-10-30T13:34:39.737Z,100309.19
2022-10-30T13:37:06.305Z,100309.69
2022-10-30T13:39:46.758Z,100309.91
2022-10-30T13:42:19.251Z,100298.94
2022-10-30T13:44:58.271Z,100305.19
2022-10-30T13:47:34.486Z,100301.09
2022-10-30T13:50:12.640Z,100293.06
2022-10-30T13:52:44.318Z,100297.16
2022-10-30T13:55:21.214Z,100296.50
2022-10-30T13:58:01.367Z,100295.06
2022-10-30T14:01:07.067Z,100296.88
2022-10-30T14:04:01.924Z,100290.44
2022-10-30T14:06:42.935Z,100299.13
2022-10-30T14:09:37.113Z,100306.09
2022-10-30T14:12:41.345Z,100306.41
2022-10-30T14:15:31.147Z,100303.34
2022-10-30T14:18:28.118Z,100294.44
2022-10-30T14:20:57.634Z,100298.75
2022-10-30T14:23:37.628Z,100304.09
2022-10-30T14:26:04.090Z,100299.47
2022-10-30T14:28:32.475Z,100308.97
2022-10-30T14:31:35.768Z,100313.53
2022-10-30T14:34:02.397Z,100314.06
2022-10-30T14:36:38.238Z,100314.56
2022-10-30T14:39:10.763Z,100318.38
2022-10-30T14:41:57.698Z,100318.38
2022-10-30T14:45:12.775Z,100321.44
2022-10-30T14:47:58.100Z,100316.88
2022-10-30T14:50:27.511Z,100309.47
2022-10-30T14:53:00.253Z,100308.00
2022-10-30T14:55:33.409Z,100313.56
2022-10-30T14:58:02.845Z,100308.50
2022-10-30T15:00:35.219Z,100302.53
2022-10-30T15:03:14.800Z,100306.16
2022-10-30T15:05:44.551Z,100305.03
2022-10-30T15:08:47.807Z,100304.19
2022-10-30T15:11:26.866Z,100302.63
2022-10-30T15:14:02.808Z,100312.97
2022-10-30T15:16:30.688Z,100307.59
2022-10-30T15:19:05.322Z,100312.81
2022-10-30T15:21:39.492Z,100314.59
2022-10-30T15:24:15.464Z,100311.19
2022-10-30T15:26:45.488Z,100310.59
2022-10-30T15:29:19.366Z,100311.19
2022-10-30T15:31:45.806Z,100312.16
2022-10-30T15:34:22.904Z,100308.31
2022-10-30T15:36:49.394Z,100304.44
2022-10-30T15:39:20.104Z,100304.47
2022-10-30T15:41:53.918Z,100313.97
2022-10-30T15:44:24.486Z,100314.19
2022-10-30T15:46:53.296Z,100320.50
2022-10-30T15:49:40.222Z,100322.31
2022-10-30T15:52:20.609Z,100327.13
2022-10-30T15:54:52.126Z,100328.97
2022-10-30T15:58:01.036Z,100330.22
2022-10-30T16:00:23.827Z,100330.22
2022-10-30T16:03:01.708Z,100326.81
2022-10-30T16:05:28.584Z,100323.34
2022-10-30T16:07:57.640Z,100333.72
2022-10-30T16:10:42.777Z,100319.97
2022-10-30T16:13:21.916Z,100326.97
2022-10-30T16:15:49.685Z,100329.34
2022-10-30T16:18:23.807Z,100325.06
2022-10-30T16:21:06.882Z,100325.25
2022-10-30T16:23:49.199Z,100328.00
2022-10-30T16:26:29.975Z,100333.09
2022-10-30T16:28:57.617Z,100326.84
2022-10-30T16:31:29.657Z,100334.22
2022-10-30T16:33:58.484Z,100337.03
2022-10-30T16:36:25.498Z,100332.03
2022-10-30T16:38:52.375Z,100334.06
2022-10-30T16:41:22.809Z,100331.75
2022-10-30T16:44:26.867Z,100341.56
2022-10-30T16:46:57.056Z,100347.38
2022-10-30T16:49:27.661Z,100347.56
2022-10-30T16:52:00.200Z,100358.56
2022-10-30T16:55:17.538Z,100356.50
2022-10-30T16:57:47.229Z,100346.13
2022-10-30T17:00:25.954Z,100346.50
2022-10-30T17:02:56.121Z,100353.84
2022-10-30T17:05:36.906Z,100358.84
2022-10-30T17:08:16.898Z,100356.75
2022-10-30T17:11:00.703Z,100365.03
2022-10-30T17:13:33.778Z,100364.69
2022-10-30T17:16:24.670Z,100371.13
2022-10-30T17:18:53.404Z,100380.03
2022-10-30T17:21:25.869Z,100373.97
2022-10-30T17:23:55.717Z,100377.41
2022-10-30T17:26:22.230Z,100379.19
2022-10-30T17:28:48.988Z,100383.53
2022-10-30T17:31:19.576Z,100379.53
2022-10-30T17:33:46.966Z,100378.50
2022-10-30T17:36:13.936Z,100387.00
2022-10-30T17:38:40.358Z,100388.88
2022-10-30T17:41:08.256Z,100386.97
2022-10-30T17:43:48.118Z,100391.59
2022-10-30T17:46:19.236Z,100395.34
2022-10-30T17:48:47.570Z,100399.09
2022-10-30T17:51:15.273Z,100406.56
2022-10-30T17:53:42.217Z,100410.09
2022-10-30T17:56:15.965Z,100409.63
2022-10-30T17:58:42.458Z,100419.09
2022-10-30T18:01:29.394Z,100419.28
2022-10-30T18:03:56.327Z,100421.56
2022-10-30T18:06:25.670Z,100423.34
2022-10-30T18:08:53.236Z,100430.69
2022-10-30T18:11:22.538Z,100431.41
2022-10-30T18:13:50.857Z,100438.00
2022-10-30T18:16:18.971Z,100432.31
2022-10-30T18:18:45.864Z,100434.34
2022-10-30T18:21:14.125Z,100433.88
2022-10-30T18:23:55.953Z,100437.97
2022-10-30T18:26:25.159Z,100431.09
2022-10-30T18:28:56.929Z,100443.38
2022-10-30T18:31:24.393Z,100447.09
2022-10-30T18:33:54.011Z,100442.38
2022-10-30T18:36:23.379Z,100442.50
2022-10-30T18:38:50.539Z,100448.53
2022-10-30T18:41:21.422Z,100445.22
2022-10-30T18:43:47.954Z,100442.78
2022-10-30T18:46:15.692Z,100445.03
2022-10-30T18:48:42.567Z,100451.09
2022-10-30T18:51:28.324Z,100453.41
2022-10-30T18:53:56.790Z,100459.63
2022-10-30T18:56:26.724Z,100457.25
2022-10-30T18:58:58.426Z,100458.47
2022-10-30T19:01:31.312Z,100454.88
2022-10-30T19:04:00.722Z,100453.88
2022-10-30T19:06:27.191Z,100462.72
2022-10-30T19:08:53.687Z,100466.34
2022-10-30T19:11:24.607Z,100467.47
2022-10-30T19:13:53.268Z,100465.34
2022-10-30T19:16:21.026Z,100457.53
2022-10-30T19:18:48.371Z,100460.31
2022-10-30T19:21:17.887Z,100460.03
2022-10-30T19:23:44.682Z,100461.84
2022-10-30T19:26:13.362Z,100459.38
2022-10-30T19:28:40.995Z,100466.94
2022-10-30T19:31:11.190Z,100466.00
2022-10-30T19:33:37.642Z,100465.66
2022-10-30T19:36:04.939Z,100461.28
2022-10-30T19:38:32.593Z,100456.94
2022-10-30T19:41:00.453Z,100462.41
2022-10-30T19:43:27.022Z,100455.97
2022-10-30T19:45:56.691Z,100463.72
2022-10-30T19:48:47.629Z,100463.03
2022-10-30T19:51:11.741Z,100467.75
2022-10-30T19:53:39.523Z,100468.53
2022-10-30T19:56:06.740Z,100465.81
2022-10-30T19:58:33.164Z,100463.63
2022-10-30T20:00:59.647Z,100461.59
2022-10-30T20:03:26.206Z,100475.69
2022-10-30T20:05:52.861Z,100470.63
2022-10-30T20:08:21.801Z,100479.25
2022-10-30T20:11:02.055Z,100478.38
2022-10-30T20:13:29.803Z,100482.00
2022-10-30T20:15:59.163Z,100481.88
2022-10-30T20:18:30.218Z,100483.06
2022-10-30T20:20:59.954Z,100485.88
2022-10-30T20:23:27.297Z,100487.50
2022-10-30T20:25:57.751Z,100492.81
2022-10-30T20:28:35.312Z,100489.41
2022-10-30T20:31:02.123Z,100498.44
2022-10-30T20:33:28.776Z,100499.44
2022-10-30T20:35:55.933Z,100503.00
2022-10-30T20:38:26.335Z,100503.22
2022-10-30T20:40:53.901Z,100509.63
2022-10-30T20:43:24.871Z,100508.84
2022-10-30T20:45:51.284Z,100498.25
2022-10-30T20:48:17.753Z,100511.31
2022-10-30T20:50:49.141Z,100502.34
2022-10-30T20:53:17.145Z,100512.28
2022-10-30T20:55:44.618Z,100515.19
2022-10-30T20:58:11.258Z,100520.88
2022-10-30T21:00:38.443Z,100526.25
2022-10-30T21:03:05.854Z,100528.31
2022-10-30T21:05:49.839Z,100518.66
2022-10-30T21:08:16.283Z,100524.09
2022-10-30T21:10:42.863Z,100522.41
2022-10-30T21:13:10.991Z,100523.59
2022-10-30T21:15:39.657Z,100521.09
2022-10-30T21:18:06.302Z,100521.25
2022-10-30T21:20:32.875Z,100523.31
2022-10-30T21:23:00.401Z,100525.38
2022-10-30T21:25:26.934Z,100522.06
2022-10-30T21:27:56.341Z,100525.63
2022-10-30T21:30:22.737Z,100522.13
2022-10-30T21:32:49.144Z,100521.34
2022-10-30T21:35:16.229Z,100523.22
2022-10-30T21:37:42.682Z,100523.06
2022-10-30T21:40:09.695Z,100530.13
2022-10-30T21:42:36.094Z,100523.19
2022-10-30T21:45:02.770Z,100524.25
2022-10-30T21:47:29.196Z,100526.09
2022-10-30T21:49:55.667Z,100526.19
2022-10-30T21:52:22.159Z,100529.78
2022-10-30T21:54:48.614Z,100530.66
2022-10-30T21:57:15.080Z,100527.63
2022-10-30T21:59:41.546Z,100521.53
2022-10-30T22:02:13.457Z,100531.16
2022-10-30T22:04:40.041Z,100527.84
2022-10-30T22:07:06.658Z,100531.34
2022-10-30T22:09:33.121Z,100529.44
2022-10-30T22:11:59.524Z,100528.88
2022-10-30T22:14:26.901Z,100531.34
2022-10-30T22:16:53.354Z,100527.69
2022-10-30T22:19:19.782Z,100526.25
2022-10-30T22:21:46.212Z,100527.47
2022-10-30T22:24:13.711Z,100524.94
2022-10-30T22:26:40.294Z,100522.97
2022-10-30T22:29:06.749Z,100531.84
2022-10-30T22:31:33.514Z,100526.75
2022-10-30T22:34:00.911Z,100517.94
2022-10-30T22:36:30.138Z,100521.06
2022-10-30T22:39:00.006Z,100511.44
2022-10-30T22:41:31.399Z,100518.69
2022-10-30T22:44:01.572Z,100513.59
2022-10-30T22:46:29.648Z,100522.28
2022-10-30T22:48:57.588Z,100532.88
2022-10-30T22:51:25.342Z,100525.19
2022-10-30T22:54:00.626Z,100529.75
2022-10-30T22:56:31.062Z,100531.88
2022-10-30T22:59:00.512Z,100538.94
